This is the latest recevied weather packets stored in our database for station/object SP8AQK-13. If no packets are shown the sender has not sent any weather packets the latest 10 day(s).
| Time | Temp. | Humidity | Pressure | Rain* | Wind** | Luminosity | Snow |
|---|---|---|---|---|---|---|---|
| 1777899818 | 28.33° C | 21% | 1014.4 hPa | - | - | - | - |
| 1777898617 | 27.78° C | 20% | 1014.7 hPa | - | - | - | - |
| 1777897417 | 27.78° C | 21% | 1014.8 hPa | - | - | - | - |
| 1777896216 | 27.78° C | 22% | 1015.1 hPa | - | - | - | - |
| 1777895015 | 27.22° C | 22% | 1015.4 hPa | - | - | - | - |
| 1777893814 | 27.22° C | 24% | 1015.5 hPa | - | - | - | - |
| 1777892614 | 27.78° C | 25% | 1015.7 hPa | - | - | - | - |
| 1777891413 | 26.67° C | 26% | 1015.9 hPa | - | - | - | - |
| 1777890212 | 26.11° C | 26% | 1016.3 hPa | - | - | - | - |
| 1777889011 | 26.11° C | 29% | 1016.6 hPa | - | - | - | - |
| 1777887811 | 26.11° C | 29% | 1016.6 hPa | - | - | - | - |
| 1777886610 | 26.11° C | 30% | 1017 hPa | - | - | - | - |
| 1777884208 | 25° C | 29% | 1017.5 hPa | - | - | - | - |
| 1777883008 | 24.44° C | 30% | 1017.5 hPa | - | - | - | - |
| 1777881807 | 23.33° C | 32% | 1017.8 hPa | - | - | - | - |
| 1777880606 | 22.78° C | 35% | 1017.8 hPa | - | - | - | - |
| 1777879406 | 22.22° C | 37% | 1017.9 hPa | - | - | - | - |
| 1777878205 | 21.67° C | 37% | 1018 hPa | - | - | - | - |
| 1777877004 | 21.11° C | 36% | 1018.1 hPa | - | - | - | - |
| 1777875803 | 19.44° C | 39% | 1018.2 hPa | - | - | - | - |
| 1777874602 | 18.33° C | 43% | 1018.2 hPa | - | - | - | - |
| 1777873402 | 16.11° C | 51% | 1018.3 hPa | - | - | - | - |
| 1777872201 | 13.33° C | 68% | 1018.6 hPa | - | - | - | - |
| 1777871000 | 10° C | 82% | 1019.1 hPa | - | - | - | - |
| 1777869800 | 7.78° C | 86% | 1019.3 hPa | - | - | - | - |
* Rain since midnight (hover to see other rain measurements)
** Current wind speed in m/s (hover to see current wind gust speed)